Terminal Aerodrome Forecast
Issued by NWS

Home | Current Version | Previous Version | Text Only | Print | Product List | Glossary On
Versions: 1 2 3 4 5 6 7 8 9 10 11 12 13 14 15 16 17
000
FTUS42 TJSJ 011721 AAA
TAFJSJ
TAF AMD
TJSJ 011721Z 0118/0218 11005KT P6SM VCSH FEW022 SCT030
     FM012200 09010KT P6SM SCT022 SCT035 BKN070
     FM021400 11010KT P6SM FEW030=

USA.gov is the U.S. government's official web portal to all federal, state and local government web resources and services.